KISM/ISM METAR and TAF weather

Enter ICAO airport designator
Station Type Date Time Source
KISM METAR 2019/04/22 19:56 UTC NOAA

KISM 221956Z 10007KT 10SM CLR 27/07 A3013 RMK AO2 SLP205 T02670067 PNO $


Station Type Date Time Source
KISM Decoded METAR 2019/04/22 19:56 UTC NOAA

Orlando, Kissimmee Municipal Airport, FL, United States (KISM) 28-17-23N 081-26-14W
Apr 22, 2019 - 03:56 PM EDT / 2019.04.22 1956 UTC
Wind: from the E (100 degrees) at 8 MPH (7 KT):0
Visibility: 10 mile(s):0
Sky conditions: clear
Temperature: 80.1 F (26.7 C)
Dew Point: 44.1 F (6.7 C)
Relative Humidity: 28%
Pressure (altimeter): 30.13 in. Hg (1020 hPa)
ob: KISM 221956Z 10007KT 10SM CLR 27/07 A3013 RMK AO2 SLP205 T02670067 PNO
cycle: 20

Station Type Date Time Source
KISM TAF 2019/04/22 18:22 UTC NOAA

TAF KISM 221720Z 2218/2318 03006KT P6SM SKC
FM222200 08008KT P6SM SKC
FM230200 VRB02KT P6SM SKC
FM231500 08006KT P6SM SKC

Example: see airport list